Aviation Digital Data Service (ADDS)

Output produced by METARs form (1241 UTC 24 April 2014)
found at http://aviationweather.gov/adds/metars/
 
KFRG 241153Z 31009G17KT 10SM CLR 07/M08 A2988 RMK AO2 SLP118 T00671078 10067 20050 53019
KISP 241156Z 33014G20KT 10SM FEW250 08/M07 A2984 RMK AO2 SLP106 T00781072 10078 20056 51021
KISP 241130Z 2412/2512 31014G23KT P6SM SKC 
     FM241400 32024G36KT P6SM SKC 
     FM242200 32020G30KT P6SM SKC 
     FM250000 32012KT P6SM SKC 
     FM250600 33006KT P6SM SKC
       
KJFK 241151Z 31018G24KT 10SM CLR 08/M09 A2991 RMK AO2 SLP126 T00781089 10078 20061 53020
KJFK 241130Z 2412/2518 31023G30KT P6SM SKC 
     FM241400 32024G36KT P6SM SKC 
     FM242200 33018G30KT P6SM SKC 
     FM250200 33012G18KT P6SM SKC 
     FM250400 33009KT P6SM SKC 
     FM251200 01005KT P6SM SKC 
     FM251500 14006KT P6SM SKC
       
KBDR 241152Z 31010G22KT 10SM CLR 08/M10 A2984 RMK AO2 PK WND 33027/1100 SLP105 T00781100 10083 20061 53018
KBDR 241130Z 2412/2512 31018G28KT P6SM SKC 
     FM241400 33024G36KT P6SM SKC 
     FM242200 33018G26KT P6SM SKC 
     FM250000 33010KT P6SM SKC 
     FM250600 33006KT P6SM SKC